Time;durP1;ratioP1;P1;durP2;ratioP2;P2;SDS_P1;SDS_P2;PMS_P1;PMS_P2;Temp;Humidity;BMP_temperature;BMP_pressure;BME280_temperature;BME280_humidity;BME280_pressure;Samples;Min_cycle;Max_cycle;Signal;HPM_P1;HPM_P2
2023/10/11 00:00:44;;;;;;;21.17;9.45;;;;;;;;;;5079163;28;20052;-60
2023/10/11 00:03:32;;;;;;;14.40;8.57;;;;;;;;;;5072833;28;20049;-60
2023/10/11 00:05:59;;;;;;;14.75;8.57;;;;;;;;;;5070887;28;20062;-61
2023/10/11 00:08:26;;;;;;;16.20;8.15;;;;;;;;;;5081873;28;20469;-61
2023/10/11 00:10:54;;;;;;;16.88;8.65;;;;;;;;;;5064737;28;20426;-61
2023/10/11 00:13:22;;;;;;;17.60;9.40;;;;;;;;;;5080239;28;20564;-60
2023/10/11 00:15:50;;;;;;;20.35;8.93;;;;;;;;;;5083657;28;20372;-60
2023/10/11 00:18:21;;;;;;;15.77;8.75;;;;;;;;;;5082859;28;20540;-60
2023/10/11 00:20:52;;;;;;;16.40;10.38;;;;;;;;;;5080236;28;20060;-60
2023/10/11 00:23:21;;;;;;;15.98;9.45;;;;;;;;;;5083564;28;20048;-59
2023/10/11 00:25:52;;;;;;;20.00;10.05;;;;;;;;;;5081198;28;20052;-60
2023/10/11 00:28:23;;;;;;;15.75;8.70;;;;;;;;;;5078426;28;20156;-60
2023/10/11 00:30:54;;;;;;;17.73;9.55;;;;;;;;;;5073686;28;20057;-60
2023/10/11 00:33:21;;;;;;;22.17;10.30;;;;;;;;;;5082174;28;20052;-60
2023/10/11 00:36:04;;;;;;;19.38;10.15;;;;;;;;;;5063297;28;20062;-61
2023/10/11 00:38:32;;;;;;;22.77;11.00;;;;;;;;;;5074650;28;20045;-60
2023/10/11 00:41:12;;;;;;;20.75;10.60;;;;;;;;;;5072378;28;20053;-61
2023/10/11 00:43:41;;;;;;;19.58;9.73;;;;;;;;;;5080212;28;20093;-60
2023/10/11 00:46:08;;;;;;;22.23;11.38;;;;;;;;;;5080674;28;20053;-60
2023/10/11 00:48:36;;;;;;;18.58;10.95;;;;;;;;;;5070822;28;20061;-60
2023/10/11 00:51:07;;;;;;;14.70;10.50;;;;;;;;;;5074708;28;20517;-59
2023/10/11 00:53:34;;;;;;;21.75;10.85;;;;;;;;;;5082356;28;20052;-60
2023/10/11 00:56:07;;;;;;;21.55;11.30;;;;;;;;;;5081957;28;20052;-61
2023/10/11 00:58:33;;;;;;;22.48;10.93;;;;;;;;;;5083122;28;20170;-61
2023/10/11 01:01:01;;;;;;;24.45;11.15;;;;;;;;;;5082245;28;20106;-60
2023/10/11 01:03:32;;;;;;;23.13;10.93;;;;;;;;;;5081711;28;20053;-59
2023/10/11 01:06:00;;;;;;;21.35;10.80;;;;;;;;;;5081906;28;20122;-60
2023/10/11 01:08:38;;;;;;;25.48;10.63;;;;;;;;;;5081439;28;20091;-60
2023/10/11 01:11:09;;;;;;;16.40;9.40;;;;;;;;;;5082937;28;20049;-60
2023/10/11 01:13:42;;;;;;;17.13;10.27;;;;;;;;;;5082230;28;20056;-60
2023/10/11 01:16:09;;;;;;;17.83;10.30;;;;;;;;;;5077764;28;20060;-60
2023/10/11 01:18:37;;;;;;;18.70;9.85;;;;;;;;;;5074581;28;20056;-60
2023/10/11 01:21:04;;;;;;;15.23;10.48;;;;;;;;;;5073081;28;20127;-60
2023/10/11 01:23:34;;;;;;;19.75;9.60;;;;;;;;;;5075822;28;20045;-61
2023/10/11 01:26:07;;;;;;;19.15;9.75;;;;;;;;;;5083280;28;20138;-59
2023/10/11 01:28:34;;;;;;;17.73;9.23;;;;;;;;;;5080381;28;20064;-58
2023/10/11 01:31:02;;;;;;;13.70;8.50;;;;;;;;;;5083234;28;20140;-59
2023/10/11 01:33:29;;;;;;;21.25;9.68;;;;;;;;;;5083174;28;20507;-60
2023/10/11 01:35:55;;;;;;;15.38;9.02;;;;;;;;;;5086005;28;20566;-60
2023/10/11 01:38:24;;;;;;;16.35;10.20;;;;;;;;;;5084152;28;20055;-59
2023/10/11 01:40:54;;;;;;;21.40;9.40;;;;;;;;;;5076432;28;20056;-58
2023/10/11 01:43:20;;;;;;;18.92;9.95;;;;;;;;;;5066741;28;20100;-60
2023/10/11 01:45:47;;;;;;;21.15;10.23;;;;;;;;;;5084725;28;20057;-60
2023/10/11 01:48:15;;;;;;;17.05;9.73;;;;;;;;;;5083301;28;20516;-61
2023/10/11 01:50:42;;;;;;;20.08;9.80;;;;;;;;;;5083951;28;20143;-60
2023/10/11 01:53:08;;;;;;;18.75;9.32;;;;;;;;;;5071655;28;20048;-60
2023/10/11 01:55:36;;;;;;;19.73;10.07;;;;;;;;;;5083744;28;20059;-60
2023/10/11 01:58:06;;;;;;;20.85;10.02;;;;;;;;;;5083925;28;20590;-60
2023/10/11 02:00:33;;;;;;;19.88;10.23;;;;;;;;;;5084005;28;20089;-58
2023/10/11 02:03:01;;;;;;;16.80;9.98;;;;;;;;;;5072345;28;20064;-60
2023/10/11 02:05:31;;;;;;;17.90;10.20;;;;;;;;;;5071661;28;20051;-61
2023/10/11 02:08:04;;;;;;;19.67;9.70;;;;;;;;;;5082586;28;20103;-60
2023/10/11 02:10:36;;;;;;;21.58;12.13;;;;;;;;;;5083334;28;20057;-60
2023/10/11 02:13:04;;;;;;;24.20;11.32;;;;;;;;;;5077844;28;20057;-60
2023/10/11 02:15:30;;;;;;;16.33;10.18;;;;;;;;;;5083468;28;20114;-60
2023/10/11 02:17:57;;;;;;;17.55;10.02;;;;;;;;;;5081565;28;20063;-60
2023/10/11 02:20:24;;;;;;;21.23;10.75;;;;;;;;;;5079372;28;20139;-59
2023/10/11 02:22:52;;;;;;;19.15;10.55;;;;;;;;;;5084091;28;20048;-58
2023/10/11 02:25:19;;;;;;;22.77;11.05;;;;;;;;;;5083830;28;20487;-60
2023/10/11 02:27:49;;;;;;;17.63;9.93;;;;;;;;;;5075408;28;20643;-60
2023/10/11 02:30:25;;;;;;;20.60;10.25;;;;;;;;;;5083783;28;21021;-60
2023/10/11 02:32:52;;;;;;;19.55;10.07;;;;;;;;;;5084503;28;20049;-59
2023/10/11 02:35:19;;;;;;;21.65;11.20;;;;;;;;;;5076814;28;20216;-59
2023/10/11 02:37:46;;;;;;;22.98;11.25;;;;;;;;;;5083817;28;20059;-59
2023/10/11 02:40:23;;;;;;;15.80;10.55;;;;;;;;;;5084555;28;20419;-60
2023/10/11 02:42:55;;;;;;;20.35;10.45;;;;;;;;;;5083798;28;20144;-59
2023/10/11 02:45:22;;;;;;;17.20;10.48;;;;;;;;;;5082234;28;20082;-59
2023/10/11 02:47:49;;;;;;;21.50;11.18;;;;;;;;;;5072605;28;20052;-58
2023/10/11 02:50:17;;;;;;;20.98;10.68;;;;;;;;;;5084454;28;20067;-60
2023/10/11 02:52:44;;;;;;;20.60;11.73;;;;;;;;;;5083629;28;20052;-59
2023/10/11 02:55:28;;;;;;;18.63;10.75;;;;;;;;;;5082948;28;20106;-60
2023/10/11 02:58:05;;;;;;;20.67;10.98;;;;;;;;;;5082792;28;20562;-59
2023/10/11 03:00:33;;;;;;;20.10;10.50;;;;;;;;;;5084100;28;20522;-60
2023/10/11 03:03:00;;;;;;;19.00;10.32;;;;;;;;;;5081905;28;20048;-60
2023/10/11 03:05:27;;;;;;;19.08;10.80;;;;;;;;;;5083114;28;20055;-60
2023/10/11 03:08:16;;;;;;;19.70;10.70;;;;;;;;;;5082880;28;20103;-60
2023/10/11 03:10:43;;;;;;;17.75;9.90;;;;;;;;;;5082250;28;20558;-59
2023/10/11 03:13:24;;;;;;;14.50;10.07;;;;;;;;;;5082823;28;20511;-60
2023/10/11 03:15:57;;;;;;;15.32;10.40;;;;;;;;;;5081211;28;20136;-59
2023/10/11 03:18:31;;;;;;;24.13;10.93;;;;;;;;;;5081946;28;20059;-60
2023/10/11 03:21:08;;;;;;;22.90;11.00;;;;;;;;;;5083621;28;20164;-59
2023/10/11 03:23:43;;;;;;;14.25;10.43;;;;;;;;;;5083193;28;20052;-60
2023/10/11 03:29:06;;;;;;;17.95;10.80;;;;;;;;;;5067978;28;20522;-60
2023/10/11 03:31:40;;;;;;;16.95;10.18;;;;;;;;;;5084186;28;20190;-59
2023/10/11 03:34:14;;;;;;;21.60;11.18;;;;;;;;;;5079428;28;20553;-59
2023/10/11 03:36:51;;;;;;;20.60;11.25;;;;;;;;;;5083617;28;20057;-60
2023/10/11 03:42:14;;;;;;;;;;;;;;;;;;5073761;28;20123;-60
2023/10/11 03:44:50;;;;;;;23.45;10.90;;;;;;;;;;5082555;28;44011;-59
2023/10/11 03:47:25;;;;;;;16.13;10.70;;;;;;;;;;5081400;28;20052;-60
2023/10/11 03:49:52;;;;;;;16.92;10.57;;;;;;;;;;5083175;28;20052;-60
2023/10/11 03:52:30;;;;;;;19.40;10.88;;;;;;;;;;5077714;28;20057;-60
2023/10/11 03:55:09;;;;;;;17.05;11.27;;;;;;;;;;5082870;28;20049;-59
2023/10/11 03:57:41;;;;;;;18.65;11.88;;;;;;;;;;5082349;28;20578;-59
2023/10/11 04:02:58;;;;;;;26.88;11.65;;;;;;;;;;5082991;28;20056;-59
2023/10/11 04:05:29;;;;;;;17.88;10.50;;;;;;;;;;5082317;28;20474;-58
2023/10/11 04:07:56;;;;;;;17.52;10.43;;;;;;;;;;5082069;28;20147;-59
2023/10/11 04:10:38;;;;;;;19.77;9.90;;;;;;;;;;5082811;28;20056;-60
2023/10/11 04:13:14;;;;;;;18.25;10.13;;;;;;;;;;5082135;28;20084;-60
2023/10/11 04:15:40;;;;;;;18.63;10.57;;;;;;;;;;5083748;28;20053;-59
2023/10/11 04:18:20;;;;;;;19.67;11.88;;;;;;;;;;5081850;28;20055;-59
2023/10/11 04:20:58;;;;;;;16.45;10.52;;;;;;;;;;5083366;28;20094;-59
2023/10/11 04:23:27;;;;;;;20.23;11.02;;;;;;;;;;5082765;28;20060;-60
2023/10/11 04:25:55;;;;;;;17.05;10.95;;;;;;;;;;5068036;28;20053;-59
2023/10/11 04:28:23;;;;;;;19.13;10.68;;;;;;;;;;5072455;28;20534;-60
2023/10/11 04:30:56;;;;;;;25.33;12.15;;;;;;;;;;5081826;28;21225;-59
2023/10/11 04:33:23;;;;;;;22.30;10.77;;;;;;;;;;5081076;28;20067;-60
2023/10/11 04:35:56;;;;;;;19.35;10.75;;;;;;;;;;5082304;28;20599;-59
2023/10/11 04:38:22;;;;;;;16.55;10.57;;;;;;;;;;5082935;28;20048;-60
2023/10/11 04:40:52;;;;;;;23.70;11.85;;;;;;;;;;5081410;28;20496;-59
2023/10/11 04:45:51;;;;;;;24.90;12.23;;;;;;;;;;5070677;28;20446;-59
2023/10/11 04:48:30;;;;;;;21.33;11.32;;;;;;;;;;5080712;28;20107;-60
2023/10/11 04:51:04;;;;;;;20.35;11.95;;;;;;;;;;5081882;28;20525;-60
2023/10/11 04:53:54;;;;;;;19.70;11.57;;;;;;;;;;5077323;28;20052;-60
2023/10/11 04:59:09;;;;;;;21.65;12.30;;;;;;;;;;5082378;28;20059;-60
2023/10/11 05:04:15;;;;;;;22.15;13.40;;;;;;;;;;5080690;28;20056;-60
2023/10/11 05:06:43;;;;;;;23.38;12.27;;;;;;;;;;5067513;28;20578;-60
2023/10/11 05:11:58;;;;;;;22.70;13.07;;;;;;;;;;5081738;28;20572;-60
2023/10/11 05:17:33;;;;;;;20.98;13.35;;;;;;;;;;5081415;28;20074;-60
2023/10/11 05:27:47;;;;;;;26.35;13.27;;;;;;;;;;5075077;28;20491;-60
2023/10/11 05:30:28;;;;;;;27.58;14.63;;;;;;;;;;5079673;28;20132;-60
2023/10/11 05:52:28;;;;;;;24.35;13.68;;;;;;;;;;5080144;28;20056;-59
2023/10/11 05:54:56;;;;;;;26.52;14.70;;;;;;;;;;5096597;27;20052;-57
2023/10/11 05:57:25;;;;;;;22.20;13.32;;;;;;;;;;5062456;28;20118;-60
2023/10/11 05:59:51;;;;;;;28.75;14.93;;;;;;;;;;5075225;28;21164;-60
2023/10/11 06:02:20;;;;;;;34.60;16.23;;;;;;;;;;5077041;28;20172;-59
2023/10/11 06:04:47;;;;;;;26.92;14.88;;;;;;;;;;5083695;28;20091;-59
2023/10/11 06:07:15;;;;;;;27.38;15.68;;;;;;;;;;5084456;28;20077;-60
2023/10/11 06:09:58;;;;;;;25.23;14.93;;;;;;;;;;5081039;28;20056;-59
2023/10/11 06:12:29;;;;;;;28.27;15.05;;;;;;;;;;5080542;28;20056;-59
2023/10/11 06:14:56;;;;;;;28.67;15.20;;;;;;;;;;5081052;28;20149;-59
2023/10/11 06:20:27;;;;;;;31.05;15.00;;;;;;;;;;5079872;28;20049;-59
2023/10/11 06:22:55;;;;;;;28.58;16.17;;;;;;;;;;5084549;28;20055;-60
2023/10/11 06:28:13;;;;;;;26.17;15.50;;;;;;;;;;5085062;28;20275;-59
2023/10/11 06:30:43;;;;;;;25.77;15.10;;;;;;;;;;5078358;28;20072;-60
2023/10/11 06:33:12;;;;;;;26.92;15.50;;;;;;;;;;5083958;28;20086;-60
2023/10/11 06:35:49;;;;;;;27.40;16.52;;;;;;;;;;5083696;28;20352;-59
2023/10/11 06:38:15;;;;;;;30.70;17.60;;;;;;;;;;5083376;28;20060;-59
2023/10/11 06:41:36;;;;;;;28.08;15.52;;;;;;;;;;5082638;28;20118;-60
2023/10/11 06:43:40;;;;;;;29.55;16.38;;;;;;;;;;5081280;28;20064;-59
2023/10/11 06:46:07;;;;;;;32.45;15.55;;;;;;;;;;5083213;28;20199;-58
2023/10/11 06:48:33;;;;;;;25.88;15.70;;;;;;;;;;5083482;28;20049;-60
2023/10/11 06:51:00;;;;;;;30.42;15.57;;;;;;;;;;5082511;28;20110;-60
2023/10/11 06:53:28;;;;;;;32.50;16.20;;;;;;;;;;5082976;28;20060;-59
2023/10/11 06:55:58;;;;;;;27.95;15.88;;;;;;;;;;5082611;28;20389;-59
2023/10/11 06:58:25;;;;;;;29.70;15.35;;;;;;;;;;5082775;28;20056;-60
2023/10/11 07:00:53;;;;;;;32.33;16.17;;;;;;;;;;5084313;28;20061;-60
2023/10/11 07:05:46;;;;;;;27.35;16.67;;;;;;;;;;5082550;28;20562;-59
2023/10/11 07:08:31;;;;;;;30.38;16.58;;;;;;;;;;5080503;28;20571;-59
2023/10/11 07:13:30;;;;;;;29.77;15.82;;;;;;;;;;5081903;28;20057;-61
2023/10/11 07:16:06;;;;;;;29.80;16.08;;;;;;;;;;5082163;28;20048;-60
2023/10/11 07:18:39;;;;;;;32.38;17.27;;;;;;;;;;5076114;28;20052;-60
2023/10/11 07:21:09;;;;;;;31.40;16.38;;;;;;;;;;5081736;28;20052;-60
2023/10/11 07:28:59;;;;;;;29.05;15.70;;;;;;;;;;5080174;28;20359;-60
2023/10/11 07:31:32;;;;;;;28.85;16.58;;;;;;;;;;5081856;28;20521;-60
2023/10/11 07:33:59;;;;;;;27.58;15.00;;;;;;;;;;5085500;28;20144;-60
2023/10/11 07:36:26;;;;;;;30.63;16.90;;;;;;;;;;5098837;28;20110;-61
2023/10/11 07:38:55;;;;;;;31.63;16.38;;;;;;;;;;5083089;28;20107;-61
2023/10/11 07:41:22;;;;;;;28.80;16.13;;;;;;;;;;5079054;28;20573;-60
2023/10/11 07:43:49;;;;;;;28.98;15.25;;;;;;;;;;5084371;28;20563;-58
2023/10/11 07:46:16;;;;;;;28.77;16.52;;;;;;;;;;5099139;27;20113;-61
2023/10/11 07:48:43;;;;;;;29.92;16.55;;;;;;;;;;5081506;28;20055;-59
2023/10/11 07:51:13;;;;;;;29.63;15.77;;;;;;;;;;5082179;28;20079;-60
2023/10/11 07:53:44;;;;;;;28.50;16.63;;;;;;;;;;5082599;28;20053;-61
2023/10/11 07:56:10;;;;;;;35.28;16.58;;;;;;;;;;5076025;27;20062;-60
2023/10/11 07:58:45;;;;;;;28.95;16.65;;;;;;;;;;5080967;28;20469;-58
2023/10/11 08:01:15;;;;;;;35.23;16.27;;;;;;;;;;5074712;28;20189;-61
2023/10/11 08:03:44;;;;;;;33.15;17.38;;;;;;;;;;5078066;28;20319;-62
2023/10/11 08:06:14;;;;;;;28.67;16.50;;;;;;;;;;5091099;28;20069;-60
2023/10/11 08:08:43;;;;;;;28.08;17.02;;;;;;;;;;5065003;28;20110;-60
2023/10/11 08:11:22;;;;;;;32.53;16.92;;;;;;;;;;5102427;28;20063;-60
2023/10/11 08:13:49;;;;;;;38.70;16.70;;;;;;;;;;5082355;28;20048;-60
2023/10/11 08:16:19;;;;;;;31.58;16.73;;;;;;;;;;5081251;28;20079;-61
2023/10/11 08:18:46;;;;;;;32.00;16.80;;;;;;;;;;5077985;28;20056;-60
2023/10/11 08:21:13;;;;;;;32.63;16.52;;;;;;;;;;5077770;28;20071;-60
2023/10/11 08:23:42;;;;;;;36.67;17.55;;;;;;;;;;5081972;28;20053;-60
2023/10/11 08:26:15;;;;;;;33.22;17.10;;;;;;;;;;5082826;27;20145;-60
2023/10/11 08:28:51;;;;;;;30.42;17.92;;;;;;;;;;5080681;28;20147;-59
2023/10/11 08:31:37;;;;;;;37.38;18.05;;;;;;;;;;5069606;28;20122;-59
2023/10/11 08:34:04;;;;;;;37.13;18.02;;;;;;;;;;5083052;28;20049;-61
2023/10/11 08:36:33;;;;;;;31.05;16.67;;;;;;;;;;5097773;28;20048;-60
2023/10/11 08:39:05;;;;;;;38.42;18.88;;;;;;;;;;5080036;28;20053;-60
2023/10/11 08:41:33;;;;;;;41.75;18.48;;;;;;;;;;5080485;28;20135;-60
2023/10/11 08:44:15;;;;;;;34.95;17.90;;;;;;;;;;5080746;28;20059;-61
2023/10/11 08:46:45;;;;;;;38.42;19.45;;;;;;;;;;5064396;28;20056;-60
2023/10/11 08:49:14;;;;;;;42.42;19.75;;;;;;;;;;5066213;28;20057;-61
2023/10/11 08:51:41;;;;;;;34.97;19.52;;;;;;;;;;5081703;28;20044;-60
2023/10/11 08:54:16;;;;;;;33.13;17.75;;;;;;;;;;5080374;28;20147;-61
2023/10/11 08:56:54;;;;;;;36.88;19.35;;;;;;;;;;5079767;28;20102;-60
2023/10/11 08:59:25;;;;;;;37.40;18.70;;;;;;;;;;5079757;28;20088;-61
2023/10/11 09:01:52;;;;;;;36.78;18.98;;;;;;;;;;5081224;28;20143;-61
2023/10/11 09:04:19;;;;;;;33.22;19.67;;;;;;;;;;5079435;28;20077;-59
2023/10/11 09:06:46;;;;;;;32.65;18.33;;;;;;;;;;5081322;28;20059;-60
2023/10/11 09:09:32;;;;;;;41.20;18.70;;;;;;;;;;5079977;28;20057;-60
2023/10/11 09:11:59;;;;;;;47.92;20.30;;;;;;;;;;5080729;28;20061;-60
2023/10/11 09:14:29;;;;;;;35.35;18.52;;;;;;;;;;5080367;28;20502;-60
2023/10/11 09:17:02;;;;;;;35.42;19.13;;;;;;;;;;5070783;28;20060;-61
2023/10/11 09:19:29;;;;;;;45.22;20.30;;;;;;;;;;5072425;28;20478;-60
2023/10/11 09:22:18;;;;;;;38.53;19.10;;;;;;;;;;5076005;28;20052;-59
2023/10/11 09:24:44;;;;;;;45.15;20.00;;;;;;;;;;5076557;28;20068;-60
2023/10/11 09:29:44;;;;;;;36.67;19.33;;;;;;;;;;5083935;28;20063;-60
2023/10/11 09:32:13;;;;;;;37.05;18.85;;;;;;;;;;5087636;27;20189;-59
2023/10/11 09:34:43;;;;;;;40.40;19.52;;;;;;;;;;5080731;28;20091;-60
2023/10/11 09:37:11;;;;;;;34.70;19.38;;;;;;;;;;5082492;28;20052;-59
2023/10/11 09:39:38;;;;;;;36.90;18.42;;;;;;;;;;5083584;28;20048;-60
2023/10/11 09:42:07;;;;;;;42.22;19.25;;;;;;;;;;5084584;28;20052;-60
2023/10/11 09:44:39;;;;;;;37.80;18.85;;;;;;;;;;5083767;28;20048;-61
2023/10/11 09:47:16;;;;;;;;;;;;;;;;;;5080791;28;20060;-61
2023/10/11 09:49:43;;;;;;;35.60;17.45;;;;;;;;;;5071212;28;45429;-61
2023/10/11 09:52:10;;;;;;;43.38;18.95;;;;;;;;;;5069916;28;20526;-61
2023/10/11 09:54:37;;;;;;;33.55;17.85;;;;;;;;;;5077899;28;20130;-60
2023/10/11 09:57:08;;;;;;;29.95;17.05;;;;;;;;;;5084375;28;20053;-60
2023/10/11 09:59:59;;;;;;;35.65;18.13;;;;;;;;;;5080094;28;20052;-60
2023/10/11 10:02:30;;;;;;;31.63;16.02;;;;;;;;;;5068894;28;20499;-59
2023/10/11 10:04:57;;;;;;;32.83;16.92;;;;;;;;;;5074053;28;20509;-60
2023/10/11 10:07:25;;;;;;;27.17;15.00;;;;;;;;;;5077310;28;20510;-60
2023/10/11 10:09:52;;;;;;;30.15;15.32;;;;;;;;;;5075633;28;20050;-60
2023/10/11 10:12:25;;;;;;;28.20;15.48;;;;;;;;;;5079108;28;20059;-60
2023/10/11 10:15:01;;;;;;;33.30;16.30;;;;;;;;;;5077379;28;20048;-60
2023/10/11 10:17:30;;;;;;;29.48;14.70;;;;;;;;;;5079760;28;20062;-60
2023/10/11 10:20:16;;;;;;;33.30;16.15;;;;;;;;;;5085483;28;20052;-60
2023/10/11 10:23:04;;;;;;;29.05;15.50;;;;;;;;;;5093919;28;20347;-60
2023/10/11 10:25:30;;;;;;;28.48;15.13;;;;;;;;;;5084006;27;20055;-60
2023/10/11 10:27:57;;;;;;;33.28;14.88;;;;;;;;;;5083033;28;20061;-59
2023/10/11 10:30:27;;;;;;;27.88;14.00;;;;;;;;;;5084027;28;20068;-61
2023/10/11 10:33:12;;;;;;;29.33;14.52;;;;;;;;;;5083033;28;20136;-60
2023/10/11 10:35:39;;;;;;;36.33;15.88;;;;;;;;;;5080738;28;20674;-59
2023/10/11 10:38:09;;;;;;;28.55;14.02;;;;;;;;;;5083946;28;20497;-59
2023/10/11 10:40:45;;;;;;;28.70;15.38;;;;;;;;;;5083471;28;20048;-60
2023/10/11 10:43:27;;;;;;;34.25;13.93;;;;;;;;;;5084165;28;20058;-60
2023/10/11 10:46:00;;;;;;;29.33;14.50;;;;;;;;;;5086091;28;20048;-60
2023/10/11 10:48:39;;;;;;;24.73;13.05;;;;;;;;;;5078273;28;20040;-59
2023/10/11 10:51:07;;;;;;;30.85;13.52;;;;;;;;;;5081406;28;20058;-60
2023/10/11 10:53:37;;;;;;;29.80;13.95;;;;;;;;;;5082872;28;20056;-60
2023/10/11 10:56:04;;;;;;;24.70;12.50;;;;;;;;;;5082633;28;20056;-61
2023/10/11 10:58:30;;;;;;;28.17;13.68;;;;;;;;;;5080272;28;20056;-61
2023/10/11 11:01:00;;;;;;;28.23;12.05;;;;;;;;;;5083199;28;20057;-61
2023/10/11 11:03:32;;;;;;;32.83;14.00;;;;;;;;;;5082087;28;20157;-60
2023/10/11 11:06:01;;;;;;;26.63;12.93;;;;;;;;;;5083199;28;20059;-61
2023/10/11 11:08:28;;;;;;;23.83;13.48;;;;;;;;;;5081606;28;20714;-59
2023/10/11 11:11:18;;;;;;;24.35;11.68;;;;;;;;;;5081601;28;20052;-60
2023/10/11 11:13:49;;;;;;;24.52;11.60;;;;;;;;;;5082422;28;20545;-59
2023/10/11 11:16:16;;;;;;;23.92;12.10;;;;;;;;;;5088696;28;20064;-61
2023/10/11 11:18:43;;;;;;;24.20;11.00;;;;;;;;;;5074529;28;20465;-60
2023/10/11 11:21:21;;;;;;;20.48;10.02;;;;;;;;;;5080487;28;20434;-60
2023/10/11 11:23:50;;;;;;;23.17;9.75;;;;;;;;;;5082561;28;20127;-59
2023/10/11 11:26:23;;;;;;;21.95;9.43;;;;;;;;;;5082543;28;20059;-60
2023/10/11 11:29:07;;;;;;;18.50;9.23;;;;;;;;;;5081711;28;20691;-60
2023/10/11 11:31:51;;;;;;;21.10;8.63;;;;;;;;;;5094748;27;20055;-60
2023/10/11 11:34:27;;;;;;;19.17;9.63;;;;;;;;;;5081357;28;20055;-60
2023/10/11 11:36:56;;;;;;;20.58;9.35;;;;;;;;;;5082722;28;20072;-60
2023/10/11 11:39:40;;;;;;;;;;;;;;;;;;5077405;28;20099;-60
2023/10/11 11:42:18;;;;;;;15.35;7.65;;;;;;;;;;5089260;28;45786;-60
2023/10/11 11:44:46;;;;;;;15.63;7.97;;;;;;;;;;5067787;28;20055;-60
2023/10/11 11:47:21;;;;;;;16.95;7.55;;;;;;;;;;5085033;28;20056;-59
2023/10/11 11:49:53;;;;;;;16.48;8.13;;;;;;;;;;5081874;28;20486;-61
2023/10/11 11:52:20;;;;;;;13.60;6.75;;;;;;;;;;5081941;28;20053;-60
2023/10/11 11:54:47;;;;;;;16.35;7.15;;;;;;;;;;5078425;28;20111;-60
2023/10/11 11:57:14;;;;;;;14.88;6.82;;;;;;;;;;5079617;28;20532;-58
2023/10/11 11:59:43;;;;;;;11.05;6.40;;;;;;;;;;5080733;28;20053;-61
2023/10/11 12:02:16;;;;;;;19.70;6.90;;;;;;;;;;5098231;28;20059;-60
2023/10/11 12:04:44;;;;;;;15.20;5.32;;;;;;;;;;5081637;27;20103;-60
2023/10/11 12:07:11;;;;;;;14.52;6.70;;;;;;;;;;5093703;27;20057;-60
2023/10/11 12:09:38;;;;;;;10.98;4.93;;;;;;;;;;5075209;28;20114;-60
2023/10/11 12:12:25;;;;;;;8.82;4.25;;;;;;;;;;5079174;28;20064;-60
2023/10/11 12:14:52;;;;;;;11.25;4.80;;;;;;;;;;5078495;28;20053;-60
2023/10/11 12:17:19;;;;;;;17.33;5.20;;;;;;;;;;5080718;28;20052;-60
2023/10/11 12:19:49;;;;;;;9.23;4.82;;;;;;;;;;5081797;28;20052;-59
2023/10/11 12:22:21;;;;;;;16.30;4.53;;;;;;;;;;5082685;28;20075;-60
2023/10/11 12:24:48;;;;;;;7.78;3.63;;;;;;;;;;5081442;28;20140;-61
2023/10/11 12:27:14;;;;;;;8.75;4.03;;;;;;;;;;5080554;28;20052;-60
2023/10/11 12:29:43;;;;;;;12.90;4.18;;;;;;;;;;5080434;28;20057;-61
2023/10/11 12:32:33;;;;;;;9.57;4.13;;;;;;;;;;5094794;28;20056;-60
2023/10/11 12:35:04;;;;;;;7.75;3.67;;;;;;;;;;5082890;28;20071;-60
2023/10/11 12:37:33;;;;;;;9.55;3.28;;;;;;;;;;5081743;28;20057;-61
2023/10/11 12:40:00;;;;;;;7.40;3.53;;;;;;;;;;5080473;28;21138;-60
2023/10/11 12:42:26;;;;;;;15.75;3.95;;;;;;;;;;5090121;28;20052;-60
2023/10/11 12:44:53;;;;;;;9.40;4.43;;;;;;;;;;5081612;28;20076;-60
2023/10/11 12:47:20;;;;;;;9.15;4.60;;;;;;;;;;5097214;27;20059;-59
2023/10/11 12:49:46;;;;;;;10.45;4.60;;;;;;;;;;5084905;27;20064;-60
2023/10/11 12:52:17;;;;;;;9.18;5.05;;;;;;;;;;5084799;28;20048;-60
2023/10/11 12:54:44;;;;;;;9.65;4.88;;;;;;;;;;5080744;28;20509;-60
2023/10/11 12:57:15;;;;;;;11.43;4.45;;;;;;;;;;5073924;28;20056;-40
2023/10/11 12:59:42;;;;;;;16.05;6.15;;;;;;;;;;5092237;28;20053;-59
2023/10/11 13:02:10;;;;;;;12.80;5.43;;;;;;;;;;5078789;28;20083;-59
2023/10/11 13:04:41;;;;;;;15.82;5.85;;;;;;;;;;5068416;28;20087;-59
2023/10/11 13:07:13;;;;;;;13.63;6.47;;;;;;;;;;5081506;28;20053;-61
2023/10/11 13:09:40;;;;;;;12.00;5.60;;;;;;;;;;5081762;28;20052;-60
2023/10/11 13:12:08;;;;;;;13.85;6.10;;;;;;;;;;5081882;28;20076;-61
2023/10/11 13:14:38;;;;;;;11.13;5.35;;;;;;;;;;5074623;28;20577;-61
2023/10/11 13:17:08;;;;;;;13.15;6.63;;;;;;;;;;5084543;28;20143;-60
2023/10/11 13:19:34;;;;;;;12.70;5.63;;;;;;;;;;5085854;28;20341;-61
2023/10/11 13:22:09;;;;;;;12.75;5.93;;;;;;;;;;5083978;28;20358;-62
2023/10/11 13:24:37;;;;;;;9.73;5.43;;;;;;;;;;5084575;28;20056;-59
2023/10/11 13:27:04;;;;;;;18.13;7.03;;;;;;;;;;5075731;28;20111;-61
2023/10/11 13:29:30;;;;;;;15.25;6.43;;;;;;;;;;5067776;28;20067;-61
2023/10/11 13:31:57;;;;;;;15.98;6.85;;;;;;;;;;5085054;28;20052;-60
2023/10/11 13:34:24;;;;;;;17.95;7.22;;;;;;;;;;5083798;28;20063;-60
2023/10/11 13:36:51;;;;;;;16.08;6.93;;;;;;;;;;5083463;28;20181;-58
2023/10/11 13:39:27;;;;;;;11.07;7.22;;;;;;;;;;5082892;28;20058;-60
2023/10/11 13:41:57;;;;;;;14.68;7.70;;;;;;;;;;5084885;28;20076;-60
2023/10/11 13:44:24;;;;;;;18.00;6.70;;;;;;;;;;5080593;28;20122;-61
2023/10/11 13:46:53;;;;;;;13.90;7.47;;;;;;;;;;5078483;28;20060;-61
2023/10/11 13:49:25;;;;;;;15.07;7.30;;;;;;;;;;5081975;28;20045;-59
2023/10/11 13:51:53;;;;;;;19.58;8.35;;;;;;;;;;5083213;28;20052;-61
2023/10/11 13:54:31;;;;;;;18.10;8.18;;;;;;;;;;5083790;28;20513;-61
2023/10/11 13:56:59;;;;;;;18.88;8.68;;;;;;;;;;5092383;28;20048;-61
2023/10/11 13:59:28;;;;;;;13.90;9.10;;;;;;;;;;5087543;27;20499;-60
2023/10/11 14:09:54;;;;;;;21.50;9.55;;;;;;;;;;5063941;28;20140;-61
2023/10/11 14:12:25;;;;;;;17.40;10.00;;;;;;;;;;5082695;28;20126;-60
2023/10/11 14:14:52;;;;;;;16.77;10.07;;;;;;;;;;5083914;28;20092;-59
2023/10/11 14:17:24;;;;;;;18.45;10.63;;;;;;;;;;5082258;28;20052;-60
2023/10/11 14:19:51;;;;;;;21.35;10.77;;;;;;;;;;5082583;28;20052;-60
2023/10/11 14:22:18;;;;;;;18.90;10.88;;;;;;;;;;5082968;28;20144;-60
2023/10/11 14:24:48;;;;;;;20.52;11.23;;;;;;;;;;5083838;28;20669;-60
2023/10/11 14:27:17;;;;;;;18.50;11.00;;;;;;;;;;5083263;28;20587;-60
2023/10/11 14:29:45;;;;;;;22.85;12.50;;;;;;;;;;5081932;28;20064;-60
2023/10/11 14:32:13;;;;;;;18.45;11.63;;;;;;;;;;5083685;28;20049;-60
2023/10/11 14:34:40;;;;;;;18.30;11.30;;;;;;;;;;5079994;28;20060;-61
2023/10/11 14:37:08;;;;;;;18.00;10.75;;;;;;;;;;5082011;28;20606;-59
2023/10/11 14:39:47;;;;;;;22.70;11.80;;;;;;;;;;5083850;28;20118;-59
2023/10/11 14:42:14;;;;;;;19.88;12.32;;;;;;;;;;5067314;28;20049;-60
2023/10/11 14:44:41;;;;;;;22.25;11.85;;;;;;;;;;5076191;28;20044;-59
2023/10/11 14:47:13;;;;;;;21.25;12.15;;;;;;;;;;5083243;28;20059;-61
2023/10/11 14:49:40;;;;;;;18.23;11.45;;;;;;;;;;5083875;27;20125;-60
2023/10/11 14:52:07;;;;;;;26.10;12.23;;;;;;;;;;5080692;28;20107;-59
2023/10/11 14:54:35;;;;;;;21.83;11.77;;;;;;;;;;5082875;28;20052;-60
2023/10/11 14:57:01;;;;;;;26.98;12.73;;;;;;;;;;5082437;28;20052;-59
2023/10/11 14:59:34;;;;;;;19.00;12.65;;;;;;;;;;5084270;28;20066;-60
2023/10/11 15:02:02;;;;;;;24.48;11.38;;;;;;;;;;5080982;28;20059;-60
2023/10/11 15:04:29;;;;;;;26.10;12.57;;;;;;;;;;5081166;28;20049;-59
2023/10/11 15:06:56;;;;;;;22.80;12.00;;;;;;;;;;5082794;28;20136;-60
2023/10/11 15:09:22;;;;;;;23.30;12.02;;;;;;;;;;5083745;28;20072;-60
2023/10/11 15:11:50;;;;;;;21.27;11.40;;;;;;;;;;5076122;28;20057;-59
2023/10/11 15:14:16;;;;;;;21.38;11.73;;;;;;;;;;5083611;28;20152;-60
2023/10/11 15:16:46;;;;;;;18.23;11.30;;;;;;;;;;5082484;28;20057;-60
2023/10/11 15:19:14;;;;;;;24.58;11.60;;;;;;;;;;5082204;28;20056;-60
2023/10/11 15:21:40;;;;;;;23.83;12.48;;;;;;;;;;5083240;28;20049;-60
2023/10/11 15:24:07;;;;;;;21.15;12.23;;;;;;;;;;5083204;28;20207;-60
2023/10/11 15:26:34;;;;;;;23.75;13.35;;;;;;;;;;5083002;28;20503;-61
2023/10/11 15:29:02;;;;;;;21.48;12.85;;;;;;;;;;5081614;28;20063;-60
2023/10/11 15:31:32;;;;;;;27.30;14.52;;;;;;;;;;5083211;28;20051;-61
2023/10/11 15:34:07;;;;;;;25.15;14.27;;;;;;;;;;5082330;28;20055;-61
2023/10/11 15:36:34;;;;;;;24.75;14.25;;;;;;;;;;5081915;28;20564;-60
2023/10/11 15:39:07;;;;;;;25.08;15.20;;;;;;;;;;5083433;28;20525;-61
2023/10/11 15:41:34;;;;;;;32.72;16.35;;;;;;;;;;5082666;28;20499;-61
2023/10/11 15:44:02;;;;;;;32.40;16.23;;;;;;;;;;5082334;28;20400;-61
2023/10/11 15:46:28;;;;;;;28.65;17.50;;;;;;;;;;5082164;28;20166;-61
2023/10/11 15:49:00;;;;;;;25.15;17.38;;;;;;;;;;5082658;28;20465;-60
2023/10/11 15:51:26;;;;;;;27.70;16.30;;;;;;;;;;5079375;28;20045;-61
2023/10/11 15:53:53;;;;;;;30.38;17.13;;;;;;;;;;5077385;28;20525;-61
2023/10/11 15:56:19;;;;;;;28.40;16.98;;;;;;;;;;5083529;28;20056;-61